Latest Weather Observations for Clare

IDS60801

Issued at 6:05 pm CDT Friday 31 October 2014 (issued every 30 minutes, with the page automatically refreshed every 10 minutes)

About weather observations | Map of weather stations | Latest weather observations for SA | Other Formats
Station Details ID: 021131 Name: CLARE HIGH SCHOOL Lat: -33.82 Lon: 138.59 Height: 395.0 m
Data from the previous 72 hours. | See also: Recent months at Clare
Date/Time
CDT
Temp
°C
App
Temp
°C
Dew
Point
Rel
Hum
%
Delta-T
°C
Wind Press
QNH
hPa
Press
MSL
hPa
Rain
since 9 am
mm
Dir
 
Spd
km/h
Gust
km/h
Spd
kts
Gust
kts
31/06:00pm 25.1 20.1 3.7 25 10.8 S 19 32 10 17 1002.9 1002.3 0.0
31/05:30pm 25.4 19.8 5.6 28 10.4 S 24 39 13 21 1002.2 - 0.0
31/05:00pm 29.1 25.1 6.5 24 12.2 W 17 46 9 25 1001.3 - 0.0
31/04:30pm 31.4 26.3 4.2 18 14.3 NW 20 30 11 16 1001.4 - 0.0
31/04:11pm 31.6 24.9 3.6 17 14.6 NW 28 48 15 26 1001.5 - 0.0
31/04:00pm 33.0 26.7 3.9 16 15.4 NW 26 39 14 21 1001.6 - 0.0
31/03:30pm 32.5 26.2 3.5 16 15.2 NW 26 44 14 24 1002.0 - 0.0
31/03:00pm 33.3 26.1 3.2 15 15.8 WNW 30 50 16 27 1002.7 1002.1 0.0
31/02:36pm 31.6 23.9 3.6 17 14.6 NNW 33 54 18 29 1003.1 - 0.0
31/02:35pm 31.6 23.0 2.7 16 14.9 N 37 54 20 29 1003.1 - 0.0
31/02:30pm 31.5 25.4 2.7 16 14.8 NW 24 44 13 24 1003.2 - 0.0
31/02:02pm 31.6 24.9 3.6 17 14.6 NW 28 46 15 25 1003.8 - 0.0
31/02:00pm 31.4 24.3 3.4 17 14.6 NW 30 46 16 25 1003.9 - 0.0
31/01:30pm 31.9 24.3 3.8 17 14.7 NW 33 57 18 31 1004.3 - 0.0
31/01:00pm 32.6 25.4 0.6 13 16.0 NW 28 46 15 25 1004.8 - 0.0
31/12:32pm 31.9 24.6 0.1 13 15.7 NW 28 52 15 28 1005.2 - 0.0
31/12:30pm 32.4 25.6 0.5 13 15.9 NW 26 44 14 24 1005.2 - 0.0
31/12:00pm 30.2 23.3 -2.3 12 15.3 NNW 24 41 13 22 1005.7 1005.1 0.0
31/11:30am 30.4 21.8 -2.2 12 15.3 NNW 33 54 18 29 1006.1 - 0.0
31/11:00am 31.3 23.4 -1.5 12 15.7 NNW 30 50 16 27 1006.4 - 0.0
31/10:43am 30.4 22.8 -2.2 12 15.4 NNW 28 50 15 27 1006.5 - 0.0
31/10:30am 30.2 24.2 -1.2 13 15.0 N 20 37 11 20 1006.6 - 0.0
31/10:00am 28.7 22.8 -0.5 15 14.0 N 20 32 11 17 1007.0 - 0.0
31/09:30am 27.4 22.5 1.8 19 12.6 N 17 30 9 16 1007.4 - 0.0
31/09:00am 25.0 21.3 2.4 23 11.1 NNE 11 20 6 11 1007.6 1007.0 0.0
31/08:56am 24.7 21.1 2.8 24 10.8 NE 11 17 6 9 1007.7 - 0.0
31/08:30am 19.6 18.3 4.1 36 7.6 CALM 0 0 0 0 1007.9 - 0.0
31/08:00am 17.7 15.9 3.2 38 6.9 NNW 2 7 1 4 1008.1 - 0.0
31/07:30am 17.1 14.2 2.7 38 6.7 N 7 11 4 6 1008.2 - 0.0
31/07:00am 16.5 14.0 1.8 37 6.7 N 4 6 2 3 1008.1 - 0.0
31/06:30am 15.8 13.2 3.3 43 5.8 ENE 6 7 3 4 1008.2 - 0.0
31/06:00am 17.7 14.8 1.7 34 7.4 ENE 6 9 3 5 1008.5 1008.0 0.0
31/05:30am 15.1 13.7 3.3 45 5.5 CALM 0 2 0 1 1008.7 - 0.0
31/05:00am 13.9 11.3 3.4 49 4.8 E 6 7 3 4 1009.0 - 0.0
31/04:30am 14.4 12.9 2.9 46 5.3 CALM 0 0 0 0 1009.2 - 0.0
31/04:00am 15.8 13.3 3.6 44 5.7 NE 6 11 3 6 1009.5 - 0.0
31/03:30am 15.3 12.6 3.5 45 5.5 NNE 7 11 4 6 1009.8 - 0.0
31/03:00am 13.9 12.5 3.7 50 4.7 CALM 0 0 0 0 1010.0 1009.4 0.0
31/02:30am 14.2 12.9 3.9 50 4.8 CALM 0 6 0 3 1010.0 - 0.0
31/02:00am 15.5 13.9 2.7 42 5.9 CALM 0 0 0 0 1010.5 - 0.0
31/01:30am 18.3 15.3 1.8 33 7.6 E 7 11 4 6 1011.0 - 0.0
31/01:00am 18.1 15.4 0.3 30 8.0 E 4 9 2 5 1011.2 - 0.0
31/12:30am 19.1 15.6 -1.4 25 8.9 E 7 13 4 7 1011.5 - 0.0
31/12:00am 19.3 15.8 -1.7 24 9.1 E 7 11 4 6 1011.8 1011.3 0.0
 
Date/Time
CDT
Temp
°C
App
Temp
°C
Dew
Point
Rel
Hum
%
Delta-T
°C
Wind Press
QNH
hPa
Press
MSL
hPa
Rain
since 9 am
mm
Dir
 
Spd
km/h
Gust
km/h
Spd
kts
Gust
kts
30/11:30pm 19.4 16.0 -0.6 26 8.9 ESE 7 13 4 7 1012.0 - 0.0
30/11:00pm 18.3 15.0 0.4 30 8.0 ESE 7 11 4 6 1012.4 - 0.0
30/10:30pm 16.1 14.2 2.9 41 6.1 ESE 2 7 1 4 1012.8 - 0.0
30/10:00pm 18.0 15.0 1.9 34 7.4 ESE 7 11 4 6 1012.9 - 0.0
30/09:30pm 18.5 15.4 1.1 31 7.9 SSE 7 15 4 8 1013.2 - 0.0
30/09:00pm 18.7 17.0 1.7 32 7.9 CALM 0 0 0 0 1013.1 1012.6 0.0
30/08:30pm 19.9 15.7 1.4 29 8.6 SSW 13 17 7 9 1013.0 - 0.0
30/08:00pm 21.4 17.6 -0.6 23 9.9 S 9 13 5 7 1012.7 - 0.0
30/07:30pm 23.0 20.5 1.4 24 10.3 S 4 7 2 4 1012.4 - 0.0
30/07:00pm 25.2 21.7 1.3 21 11.5 S 9 13 5 7 1012.2 - 0.0
30/06:30pm 26.6 24.0 1.1 19 12.4 WSW 4 9 2 5 1012.2 - 0.0
30/06:00pm 27.7 23.6 -0.4 16 13.4 WSW 11 19 6 10 1012.2 1011.7 0.0
30/05:30pm 28.0 23.7 -2.0 14 13.9 WSW 11 19 6 10 1012.2 - 0.0
30/05:00pm 27.9 24.3 -2.0 14 13.8 WNW 7 17 4 9 1012.6 - 0.0
30/04:30pm 28.2 24.0 -0.9 15 13.8 W 11 19 6 10 1012.9 - 0.0
30/04:00pm 27.6 23.5 -0.5 16 13.3 WNW 11 24 6 13 1013.1 - 0.0
30/03:30pm 27.6 23.0 -1.3 15 13.5 WNW 13 19 7 10 1013.3 - 0.0
30/03:00pm 27.2 22.6 -0.8 16 13.2 WSW 13 19 7 10 1013.6 1013.1 0.0
30/02:30pm 27.1 22.9 -0.9 16 13.1 WNW 11 24 6 13 1013.9 - 0.0
30/02:00pm 26.6 21.7 -0.4 17 12.7 WSW 15 24 8 13 1014.4 - 0.0
30/01:30pm 26.0 20.9 -1.7 16 12.7 WSW 15 24 8 13 1014.6 - 0.0
30/01:00pm 25.0 20.3 1.2 21 11.4 W 15 22 8 12 1015.0 - 0.0
30/12:30pm 24.7 21.2 -1.2 18 11.9 WSW 7 19 4 10 1015.3 - 0.0
30/12:00pm 23.0 20.0 4.0 29 9.5 W 9 20 5 11 1015.8 1015.3 0.0
30/11:30am 23.0 19.7 6.3 34 8.7 WSW 13 20 7 11 1016.2 - 0.0
30/11:00am 22.1 18.7 5.9 35 8.3 WSW 13 19 7 10 1016.4 - 0.0
30/10:30am 22.2 18.3 3.3 29 9.2 WNW 13 19 7 10 1016.5 - 0.0
30/10:00am 21.6 18.7 2.8 29 9.1 NW 7 19 4 10 1016.4 - 0.0
30/09:30am 20.2 18.1 5.8 39 7.3 N 6 11 3 6 1016.6 - 0.0
30/09:00am 18.4 16.5 6.9 47 5.9 W 6 9 3 5 1016.6 1016.1 0.0
30/08:30am 16.9 16.2 7.0 52 5.0 CALM 0 0 0 0 1016.7 - 0.0
30/08:00am 14.2 13.6 7.5 64 3.4 CALM 0 0 0 0 1016.5 - 0.0
30/07:30am 11.1 10.5 7.4 78 1.8 CALM 0 0 0 0 1016.4 - 0.0
30/07:00am 7.8 5.8 6.4 91 0.7 SSE 6 15 3 8 1016.3 - 0.0
30/06:30am 6.3 5.2 5.3 93 0.5 CALM 0 0 0 0 1016.2 - 0.0
30/06:00am 6.9 5.9 5.8 93 0.5 CALM 0 0 0 0 1015.8 1015.3 0.0
30/05:30am 7.3 6.4 6.1 92 0.6 CALM 0 0 0 0 1015.6 - 0.0
30/05:00am 7.9 7.1 6.4 90 0.7 CALM 0 0 0 0 1015.7 - 0.0
30/04:30am 8.6 7.9 7.1 90 0.7 CALM 0 0 0 0 1015.6 - 0.0
30/04:00am 9.1 8.5 7.5 90 0.8 CALM 0 0 0 0 1015.7 - 0.0
30/03:30am 9.9 9.4 7.8 87 1.0 CALM 0 0 0 0 1015.6 - 0.0
30/03:00am 10.4 9.8 7.6 83 1.4 CALM 0 0 0 0 1015.9 1015.4 0.0
30/02:30am 11.9 11.1 8.0 77 2.0 E 2 7 1 4 1016.2 - 0.0
30/02:00am 12.0 11.5 7.7 75 2.1 CALM 0 0 0 0 1016.7 - 0.0
30/01:30am 13.1 12.7 8.2 72 2.5 CALM 0 6 0 3 1016.8 - 0.0
30/01:00am 13.5 12.5 7.3 66 3.1 ESE 2 9 1 5 1017.3 - 0.0
30/12:30am 14.0 13.4 7.3 64 3.4 CALM 0 0 0 0 1017.4 - 0.0
30/12:00am 14.2 13.2 7.3 63 3.5 SE 2 9 1 5 1017.7 1017.3 0.0
 
Date/Time
CDT
Temp
°C
App
Temp
°C
Dew
Point
Rel
Hum
%
Delta-T
°C
Wind Press
QNH
hPa
Press
MSL
hPa
Rain
since 9 am
mm
Dir
 
Spd
km/h
Gust
km/h
Spd
kts
Gust
kts
29/11:30pm 14.1 13.2 6.2 59 3.9 CALM 0 0 0 0 1017.7 - 0.0
29/11:00pm 15.0 14.2 6.3 56 4.3 CALM 0 0 0 0 1017.5 - 0.0
29/10:30pm 15.7 13.6 6.7 55 4.5 SSE 7 11 4 6 1017.5 - 0.0
29/10:00pm 16.5 14.6 6.6 52 5.0 ESE 6 11 3 6 1017.4 - 0.0
29/09:30pm 17.1 15.0 6.0 48 5.5 ESE 6 9 3 5 1017.6 - 0.0
29/09:00pm 17.5 14.8 5.4 45 6.0 S 9 15 5 8 1017.4 1017.0 0.0
29/08:30pm 18.2 15.2 6.1 45 6.1 S 11 17 6 9 1017.3 - 0.0
29/08:00pm 19.3 16.6 5.7 41 6.8 S 9 15 5 8 1017.2 - 0.0
29/07:30pm 21.3 18.7 4.4 33 8.4 S 7 13 4 7 1016.9 - 0.0
29/07:00pm 22.9 18.9 0.7 23 10.4 S 11 17 6 9 1016.6 - 0.0
29/06:30pm 23.4 19.6 -0.8 20 11.1 SSW 9 20 5 11 1016.4 - 0.0
29/06:00pm 23.7 19.4 -2.0 18 11.5 SW 11 24 6 13 1016.4 1015.9 0.0
29/05:30pm 24.6 19.5 -5.6 13 12.7 WSW 13 22 7 12 1016.3 - 0.0
29/05:00pm 25.7 19.2 -8.2 10 13.8 WSW 19 32 10 17 1016.4 - 0.0
29/04:30pm 24.7 18.8 -5.5 13 12.8 W 17 30 9 16 1016.4 - 0.0
29/04:00pm 25.4 19.3 -4.0 14 12.9 W 19 28 10 15 1016.4 - 0.0
29/03:30pm 26.8 20.7 -2.0 15 13.2 W 20 32 11 17 1016.5 - 0.0
29/03:00pm 26.2 20.2 -3.4 14 13.2 WSW 19 26 10 14 1016.8 1016.3 0.0
29/02:30pm 26.1 20.5 0.0 18 12.4 W 19 30 10 16 1017.0 - 0.0
29/02:00pm 25.9 20.5 -1.0 17 12.5 W 17 28 9 15 1017.4 - 0.0
29/01:30pm 25.4 20.0 1.5 21 11.6 W 19 30 10 16 1017.7 - 0.0
29/01:00pm 25.2 20.2 1.3 21 11.5 WNW 17 33 9 18 1018.2 - 0.0
29/12:30pm 23.6 19.1 2.4 25 10.3 WNW 15 26 8 14 1018.5 - 0.0
29/12:00pm 23.7 19.7 3.1 26 10.1 W 13 24 7 13 1018.8 1018.3 0.0
29/11:30am 22.3 18.7 4.8 32 8.8 NW 13 20 7 11 1019.1 - 0.0
29/11:00am 21.3 18.0 6.4 38 7.7 N 13 20 7 11 1019.6 - 0.0
29/10:30am 20.0 17.3 7.4 44 6.6 N 11 20 6 11 1019.9 - 0.0
29/10:00am 18.6 16.1 8.3 51 5.4 NNE 11 17 6 9 1020.2 - 0.0
29/09:30am 17.0 15.0 8.7 58 4.4 NNE 9 17 5 9 1020.3 - 0.0
29/09:00am 15.2 12.9 8.9 66 3.3 NE 11 15 6 8 1020.6 1020.1 0.0
29/08:30am 13.3 11.4 9.0 75 2.2 NE 9 13 5 7 1020.7 - 0.0
29/08:00am 11.8 11.2 8.8 82 1.5 ESE 2 6 1 3 1020.7 - 0.0
29/07:30am 8.6 8.1 7.8 95 0.4 CALM 0 0 0 0 1020.7 - 0.0
29/07:00am 6.4 5.6 6.3 99 0.0 CALM 0 0 0 0 1020.6 - 0.0
29/06:30am 5.5 4.4 5.2 98 0.1 CALM 0 0 0 0 1020.3 - 0.0
29/06:00am 5.6 4.5 5.3 98 0.1 CALM 0 0 0 0 1019.8 1019.4 0.0
29/05:30am 5.7 4.6 5.1 96 0.3 CALM 0 0 0 0 1019.8 - 0.0
29/05:00am 6.5 5.6 6.2 98 0.1 CALM 0 0 0 0 1019.7 - 0.0
29/04:30am 6.0 5.0 5.6 97 0.2 CALM 0 0 0 0 1019.5 - 0.0
29/04:00am 6.6 5.7 5.9 95 0.3 CALM 0 0 0 0 1019.6 - 0.0
29/03:30am 6.9 6.1 6.3 96 0.3 CALM 0 0 0 0 1019.7 - 0.0
29/03:00am 6.9 5.7 6.3 96 0.3 ESE 2 7 1 4 1019.8 1019.4 0.0
29/02:30am 7.1 6.3 6.4 95 0.3 CALM 0 0 0 0 1020.0 - 0.0
29/02:00am 7.3 6.5 6.4 94 0.4 CALM 0 0 0 0 1020.0 - 0.0
29/01:30am 7.4 6.5 6.2 92 0.6 CALM 0 0 0 0 1020.1 - 0.0
29/01:00am 8.0 6.8 6.6 91 0.7 SE 2 7 1 4 1020.4 - 0.0
29/12:30am 8.3 7.6 6.9 91 0.7 CALM 0 0 0 0 1020.4 - 0.0
29/12:00am 8.5 7.7 6.5 87 0.9 CALM 0 0 0 0 1020.4 1020.0 0.0
 
Date/Time
CDT
Temp
°C
App
Temp
°C
Dew
Point
Rel
Hum
%
Delta-T
°C
Wind Press
QNH
hPa
Press
MSL
hPa
Rain
since 9 am
mm
Dir
 
Spd
km/h
Gust
km/h
Spd
kts
Gust
kts
28/11:30pm 8.8 8.0 6.6 86 1.0 CALM 0 0 0 0 1020.4 - 0.0
28/11:00pm 9.1 8.3 6.7 85 1.1 CALM 0 0 0 0 1020.3 - 0.0
28/10:30pm 9.6 8.4 6.5 81 1.5 SE 2 7 1 4 1020.2 - 0.0
28/10:00pm 10.5 9.8 6.8 78 1.8 CALM 0 0 0 0 1020.3 - 0.0
28/09:30pm 12.1 10.2 6.8 70 2.6 SSE 6 7 3 4 1020.2 - 0.0
28/09:00pm 12.8 12.1 6.8 67 2.9 CALM 0 0 0 0 1020.0 1019.6 0.0
28/08:30pm 14.2 11.9 7.3 63 3.5 SSE 9 11 5 6 1019.7 - 0.0
28/08:00pm 14.6 12.6 6.9 60 3.8 SSE 7 11 4 6 1019.7 - 0.0
28/07:30pm 16.0 13.5 6.7 54 4.7 S 9 15 5 8 1019.5 - 0.0
28/07:00pm 17.6 15.1 6.5 48 5.6 SSW 9 15 5 8 1019.4 - 0.0
28/06:30pm 17.9 14.2 6.4 47 5.8 SW 15 28 8 15 1019.3 - 0.0

Other Formats:

Comma delimited format used in spreadsheet applications
http://www.bom.gov.au/fwo/IDS60801/IDS60801.95667.axf

JavaScript Object Notation format (JSON) in row-major order
http://www.bom.gov.au/fwo/IDS60801/IDS60801.95667.json